createdAt,value
2022-11-14T00:00:10.858Z,3.54
2022-11-14T00:02:37.782Z,3.49
2022-11-14T00:05:07.138Z,3.52
2022-11-14T00:07:34.409Z,3.59
2022-11-14T00:10:00.889Z,3.49
2022-11-14T00:12:27.484Z,3.38
2022-11-14T00:14:55.899Z,3.46
2022-11-14T00:17:25.011Z,3.56
2022-11-14T00:19:51.475Z,3.47
2022-11-14T00:22:17.979Z,3.47
2022-11-14T00:24:46.249Z,3.62
2022-11-14T00:27:12.955Z,3.58
2022-11-14T00:29:39.394Z,3.64
2022-11-14T00:32:05.946Z,3.80
2022-11-14T00:34:32.427Z,3.74
2022-11-14T00:36:58.973Z,3.64
2022-11-14T00:39:25.538Z,3.74
2022-11-14T00:41:51.965Z,3.70
2022-11-14T00:44:18.400Z,3.68
2022-11-14T00:46:44.890Z,3.79
2022-11-14T00:49:11.312Z,3.85
2022-11-14T00:51:37.785Z,3.78
2022-11-14T00:54:04.291Z,3.83
2022-11-14T00:56:30.749Z,3.99
2022-11-14T00:58:57.343Z,3.85
2022-11-14T01:01:23.806Z,3.83
2022-11-14T01:03:54.184Z,4.01
2022-11-14T01:06:20.803Z,3.87
2022-11-14T01:08:47.389Z,3.76
2022-11-14T01:11:17.787Z,3.96
2022-11-14T01:13:44.323Z,3.86
2022-11-14T01:16:10.818Z,3.76
2022-11-14T01:18:38.181Z,3.95
2022-11-14T01:21:05.601Z,3.91
2022-11-14T01:23:32.275Z,3.80
2022-11-14T01:26:06.897Z,3.97
2022-11-14T01:28:33.386Z,3.89
2022-11-14T01:31:13.531Z,3.73
2022-11-14T01:33:40.078Z,3.97
2022-11-14T01:36:07.203Z,3.89
2022-11-14T01:38:33.640Z,3.80
2022-11-14T01:41:01.277Z,3.97
2022-11-14T01:43:29.889Z,3.87
2022-11-14T01:46:01.349Z,3.83
2022-11-14T01:48:33.926Z,4.00
2022-11-14T01:51:08.639Z,3.92
2022-11-14T01:53:37.097Z,3.80
2022-11-14T01:56:05.248Z,4.01
2022-11-14T01:58:34.571Z,3.90
2022-11-14T02:01:01.218Z,3.85
2022-11-14T02:03:28.079Z,4.01
2022-11-14T02:05:54.575Z,3.95
2022-11-14T02:08:21.891Z,3.93
2022-11-14T02:10:50.679Z,4.12
2022-11-14T02:13:17.173Z,3.97
2022-11-14T02:15:43.677Z,3.85
2022-11-14T02:18:10.099Z,4.02
2022-11-14T02:20:38.242Z,3.97
2022-11-14T02:23:06.853Z,3.83
2022-11-14T02:25:33.320Z,3.98
2022-11-14T02:28:02.621Z,4.00
2022-11-14T02:30:29.082Z,3.92
2022-11-14T02:33:11.720Z,4.06
2022-11-14T02:35:40.589Z,4.03
2022-11-14T02:38:07.058Z,3.98
2022-11-14T02:40:33.623Z,4.14
2022-11-14T02:43:00.891Z,4.11
2022-11-14T02:45:27.417Z,4.11
2022-11-14T02:47:53.819Z,4.23
2022-11-14T02:50:20.449Z,4.23
2022-11-14T02:52:46.885Z,4.09
2022-11-14T02:55:13.443Z,4.23
2022-11-14T02:57:39.838Z,4.31
2022-11-14T03:00:11.672Z,4.25
2022-11-14T03:02:41.023Z,4.30
2022-11-14T03:05:08.051Z,4.34
2022-11-14T03:07:34.599Z,4.22
2022-11-14T03:10:01.151Z,4.35
2022-11-14T03:12:27.702Z,4.40
2022-11-14T03:14:54.097Z,4.29
2022-11-14T03:17:20.542Z,4.37
2022-11-14T03:19:46.945Z,4.44
2022-11-14T03:22:13.483Z,4.28
2022-11-14T03:24:40.317Z,4.34
2022-11-14T03:27:06.783Z,4.43
2022-11-14T03:29:33.289Z,4.28
2022-11-14T03:31:59.727Z,4.38
2022-11-14T03:34:28.213Z,4.49
2022-11-14T03:36:54.666Z,4.28
2022-11-14T03:39:23.548Z,4.36
2022-11-14T03:41:50.855Z,4.52
2022-11-14T03:44:17.256Z,4.39
2022-11-14T03:46:43.687Z,4.47
2022-11-14T03:49:10.180Z,4.61
2022-11-14T03:51:36.865Z,4.48
2022-11-14T03:54:03.317Z,4.54
2022-11-14T03:56:29.844Z,4.64
2022-11-14T03:58:56.359Z,4.46
2022-11-14T04:01:22.893Z,4.53
2022-11-14T04:03:49.602Z,4.66
2022-11-14T04:06:16.022Z,4.52
2022-11-14T04:08:42.570Z,4.55
2022-11-14T04:11:09.160Z,4.67
2022-11-14T04:13:35.647Z,4.58
2022-11-14T04:16:02.270Z,4.59
2022-11-14T04:18:29.425Z,4.74
2022-11-14T04:20:56.555Z,4.59
2022-11-14T04:23:23.092Z,4.59
2022-11-14T04:25:49.564Z,4.75
2022-11-14T04:28:16.166Z,4.61
2022-11-14T04:30:42.663Z,4.62
2022-11-14T04:33:09.189Z,4.79
2022-11-14T04:35:35.653Z,4.60
2022-11-14T04:38:02.397Z,4.57
2022-11-14T04:40:28.985Z,4.74
2022-11-14T04:42:56.178Z,4.57
2022-11-14T04:45:22.701Z,4.56
2022-11-14T04:47:49.674Z,4.73
2022-11-14T04:50:16.170Z,4.60
2022-11-14T04:52:42.604Z,4.58
2022-11-14T04:55:09.188Z,4.80
2022-11-14T04:57:35.594Z,4.65
2022-11-14T05:00:02.109Z,4.62
2022-11-14T05:02:30.615Z,4.81
2022-11-14T05:04:57.067Z,4.69
2022-11-14T05:07:23.574Z,4.59
2022-11-14T05:09:50.046Z,4.80
2022-11-14T05:12:16.530Z,4.72
2022-11-14T05:14:43.022Z,4.70
2022-11-14T05:17:09.420Z,4.89
2022-11-14T05:19:35.892Z,4.74
2022-11-14T05:22:02.381Z,4.73
2022-11-14T05:24:28.857Z,4.94
2022-11-14T05:26:57.647Z,4.83
2022-11-14T05:29:24.138Z,4.81
2022-11-14T05:31:50.623Z,5.00
2022-11-14T05:34:17.119Z,4.82
2022-11-14T05:36:43.576Z,4.80
2022-11-14T05:39:10.039Z,5.00
2022-11-14T05:41:38.631Z,4.86
2022-11-14T05:44:05.250Z,4.80
2022-11-14T05:46:31.730Z,5.00
2022-11-14T05:48:58.260Z,4.84
2022-11-14T05:51:24.685Z,4.79
2022-11-14T05:53:51.151Z,4.98
2022-11-14T05:56:17.683Z,4.83
2022-11-14T05:58:44.147Z,4.81
2022-11-14T06:01:12.289Z,5.00
2022-11-14T06:03:40.989Z,4.82
2022-11-14T06:06:10.311Z,4.80
2022-11-14T06:08:36.907Z,4.97
2022-11-14T06:11:09.686Z,4.84
2022-11-14T06:13:36.419Z,4.91
2022-11-14T06:16:04.180Z,5.03
2022-11-14T06:18:31.147Z,4.92
2022-11-14T06:21:01.259Z,4.98
2022-11-14T06:23:28.150Z,5.11
2022-11-14T06:26:01.271Z,4.95
2022-11-14T06:28:27.994Z,4.92
2022-11-14T06:31:02.012Z,5.06
2022-11-14T06:33:30.582Z,5.08
2022-11-14T06:35:58.036Z,4.96
2022-11-14T06:38:26.846Z,5.00
2022-11-14T06:41:01.459Z,5.16
2022-11-14T06:43:27.968Z,5.01
2022-11-14T06:45:54.920Z,4.98
2022-11-14T06:48:21.346Z,5.11
2022-11-14T06:50:54.543Z,5.14
2022-11-14T06:53:21.035Z,5.05
2022-11-14T06:56:00.364Z,5.04
2022-11-14T06:58:28.086Z,5.24
2022-11-14T07:00:55.159Z,5.14
2022-11-14T07:03:22.224Z,5.11
2022-11-14T07:05:50.847Z,5.20
2022-11-14T07:08:30.847Z,5.28
2022-11-14T07:11:03.802Z,5.16
2022-11-14T07:13:31.319Z,5.21
2022-11-14T07:15:58.177Z,5.36
2022-11-14T07:18:24.731Z,5.26
2022-11-14T07:20:56.967Z,5.20
2022-11-14T07:23:23.418Z,5.30
2022-11-14T07:25:49.899Z,5.34
2022-11-14T07:28:18.558Z,5.17
2022-11-14T07:30:45.026Z,5.20
2022-11-14T07:33:13.685Z,5.39
2022-11-14T07:35:40.182Z,5.29
2022-11-14T07:38:06.635Z,5.22
2022-11-14T07:40:33.186Z,5.30
2022-11-14T07:43:01.003Z,5.42
2022-11-14T07:45:28.361Z,5.26
2022-11-14T07:47:58.187Z,5.28
2022-11-14T07:50:25.471Z,5.46
2022-11-14T07:52:52.330Z,5.36
2022-11-14T07:55:22.133Z,5.29
2022-11-14T07:57:52.245Z,5.42
2022-11-14T08:00:18.921Z,5.50
2022-11-14T08:02:46.082Z,5.40
2022-11-14T08:05:12.523Z,5.40
2022-11-14T08:07:39.037Z,5.59
2022-11-14T08:10:05.802Z,5.49
2022-11-14T08:12:32.291Z,5.43
2022-11-14T08:14:58.726Z,5.63
2022-11-14T08:17:25.159Z,5.58
2022-11-14T08:19:51.634Z,5.53
2022-11-14T08:22:18.028Z,5.58
2022-11-14T08:24:44.464Z,5.73
2022-11-14T08:27:10.856Z,5.61
2022-11-14T08:29:37.288Z,5.64
2022-11-14T08:32:03.778Z,5.79
2022-11-14T08:34:30.426Z,5.71
2022-11-14T08:36:57.907Z,5.72
2022-11-14T08:39:24.480Z,5.91
2022-11-14T08:41:51.635Z,5.79
2022-11-14T08:44:18.782Z,5.74
2022-11-14T08:46:45.223Z,5.88
2022-11-14T08:49:13.666Z,5.92
2022-11-14T08:51:40.271Z,5.80
2022-11-14T08:54:07.030Z,5.81
2022-11-14T08:56:33.467Z,6.01
2022-11-14T08:59:02.677Z,5.88
2022-11-14T09:01:29.739Z,5.88
2022-11-14T09:03:59.855Z,6.09
2022-11-14T09:06:26.587Z,5.98
2022-11-14T09:08:53.122Z,5.97
2022-11-14T09:11:21.937Z,6.10
2022-11-14T09:13:48.325Z,6.16
2022-11-14T09:16:14.825Z,6.07
2022-11-14T09:18:41.262Z,6.08
2022-11-14T09:21:08.840Z,6.31
2022-11-14T09:23:35.841Z,6.48
2022-11-14T09:26:06.177Z,6.62
2022-11-14T09:28:32.626Z,6.40
2022-11-14T09:31:03.156Z,6.55
2022-11-14T09:33:29.996Z,6.55
2022-11-14T09:35:57.492Z,6.56
2022-11-14T09:38:23.948Z,6.71
2022-11-14T09:41:03.684Z,6.62
2022-11-14T09:43:34.959Z,6.70
2022-11-14T09:46:02.663Z,6.71
2022-11-14T09:48:30.410Z,6.68
2022-11-14T09:51:06.715Z,6.80
2022-11-14T09:53:37.055Z,6.63
2022-11-14T09:56:03.562Z,6.74
2022-11-14T09:58:30.262Z,6.66
2022-11-14T10:01:19.837Z,6.69
2022-11-14T10:04:09.356Z,6.78
2022-11-14T10:06:43.765Z,6.70
2022-11-14T10:09:30.120Z,6.83
2022-11-14T10:11:57.110Z,6.69
2022-11-14T10:14:32.469Z,6.83
2022-11-14T10:17:14.646Z,6.72
2022-11-14T10:19:50.042Z,6.72
2022-11-14T10:22:24.159Z,6.72
2022-11-14T10:25:03.706Z,6.64
2022-11-14T10:27:33.293Z,6.78
2022-11-14T10:30:09.991Z,6.57
2022-11-14T10:32:45.784Z,6.65
2022-11-14T10:35:15.319Z,6.62
2022-11-14T10:37:41.902Z,6.48
2022-11-14T10:40:19.118Z,6.43
2022-11-14T10:42:48.541Z,6.63
2022-11-14T10:45:23.222Z,6.50
2022-11-14T10:48:01.378Z,6.45
2022-11-14T10:50:31.972Z,6.52
2022-11-14T10:53:01.298Z,6.45
2022-11-14T10:55:57.233Z,6.43
2022-11-14T10:58:15.036Z,6.42
2022-11-14T11:00:41.488Z,6.54
2022-11-14T11:03:08.051Z,6.41
2022-11-14T11:05:45.226Z,6.34
2022-11-14T11:08:48.779Z,6.50
2022-11-14T11:11:33.374Z,6.43
2022-11-14T11:14:01.060Z,6.36
2022-11-14T11:16:28.762Z,6.49
2022-11-14T11:19:13.251Z,6.50
2022-11-14T11:21:57.838Z,6.35
2022-11-14T11:24:31.826Z,6.39
2022-11-14T11:27:27.466Z,6.50
2022-11-14T11:30:17.388Z,6.35
2022-11-14T11:32:43.792Z,6.37
2022-11-14T11:35:12.426Z,6.47
2022-11-14T11:38:05.364Z,6.35
2022-11-14T11:40:32.954Z,6.45
2022-11-14T11:43:37.147Z,6.43
2022-11-14T11:45:54.030Z,6.28
2022-11-14T11:48:21.787Z,6.30
2022-11-14T11:50:49.502Z,6.43
2022-11-14T11:53:18.772Z,6.33
2022-11-14T11:55:46.952Z,6.31
2022-11-14T11:58:24.522Z,6.40
2022-11-14T12:00:52.216Z,6.22
2022-11-14T12:03:21.824Z,6.32
2022-11-14T12:05:54.371Z,6.34
2022-11-14T12:08:23.827Z,6.21
2022-11-14T12:10:52.752Z,6.28
2022-11-14T12:13:31.597Z,6.36
2022-11-14T12:15:58.231Z,6.26
2022-11-14T12:18:24.682Z,6.28
2022-11-14T12:21:05.633Z,6.42
2022-11-14T12:23:52.290Z,6.28
2022-11-14T12:26:38.735Z,6.29
2022-11-14T12:29:05.135Z,6.34
2022-11-14T12:31:34.151Z,6.21
2022-11-14T12:34:03.300Z,6.27
2022-11-14T12:36:31.427Z,6.32
2022-11-14T12:38:58.508Z,6.15
2022-11-14T12:41:31.057Z,6.16
2022-11-14T12:44:16.089Z,6.27
2022-11-14T12:47:01.166Z,6.13
2022-11-14T12:49:43.072Z,6.10
2022-11-14T12:52:29.409Z,6.26
2022-11-14T12:54:55.842Z,6.10
2022-11-14T12:57:45.808Z,6.09
2022-11-14T13:00:12.648Z,6.23
2022-11-14T13:02:48.946Z,6.07
2022-11-14T13:05:29.159Z,5.99
2022-11-14T13:08:06.741Z,6.16
2022-11-14T13:10:42.201Z,6.02
2022-11-14T13:13:31.990Z,5.91
2022-11-14T13:16:18.424Z,6.14
2022-11-14T13:19:21.354Z,5.97
2022-11-14T13:22:06.454Z,6.11
2022-11-14T13:24:51.818Z,6.02
2022-11-14T13:28:00.354Z,6.05
2022-11-14T13:30:18.324Z,6.15
2022-11-14T13:32:44.785Z,5.94
2022-11-14T13:35:11.149Z,5.94
2022-11-14T13:37:57.707Z,6.10
2022-11-14T13:40:38.322Z,6.22
2022-11-14T13:43:07.777Z,6.31
2022-11-14T13:46:00.327Z,6.39
2022-11-14T13:48:26.753Z,6.39
2022-11-14T13:50:56.375Z,6.44
2022-11-14T13:53:24.864Z,6.51
2022-11-14T13:55:53.989Z,6.55
2022-11-14T13:58:28.407Z,6.54
2022-11-14T14:01:13.334Z,6.61
2022-11-14T14:03:45.698Z,6.64
2022-11-14T14:06:32.419Z,6.67
2022-11-14T14:09:17.106Z,6.64
2022-11-14T14:12:02.076Z,6.66
2022-11-14T14:14:35.172Z,6.68
2022-11-14T14:17:13.071Z,6.66
2022-11-14T14:20:15.527Z,6.67
2022-11-14T14:23:02.663Z,6.65
2022-11-14T14:25:40.162Z,6.50
2022-11-14T14:28:15.281Z,6.43
2022-11-14T14:30:41.738Z,6.33
2022-11-14T14:33:08.104Z,6.32
2022-11-14T14:35:40.736Z,6.28
2022-11-14T14:38:23.424Z,6.23
2022-11-14T14:40:56.587Z,6.14
2022-11-14T14:43:25.535Z,6.13
2022-11-14T14:45:53.289Z,6.12
2022-11-14T14:48:23.845Z,6.14
2022-11-14T14:50:51.443Z,6.14
2022-11-14T14:53:22.330Z,6.16
2022-11-14T14:55:53.220Z,6.17
2022-11-14T14:58:22.870Z,6.21
2022-11-14T15:01:00.487Z,6.25
2022-11-14T15:03:35.508Z,6.22
2022-11-14T15:06:07.786Z,6.18
2022-11-14T15:08:38.671Z,6.19
2022-11-14T15:11:06.054Z,6.28
2022-11-14T15:13:33.978Z,6.30
2022-11-14T15:16:00.549Z,6.30
2022-11-14T15:18:28.676Z,6.33
2022-11-14T15:21:13.983Z,6.32
2022-11-14T15:23:40.565Z,6.24
2022-11-14T15:26:14.955Z,6.23
2022-11-14T15:28:41.438Z,6.23
2022-11-14T15:31:15.511Z,6.24
2022-11-14T15:33:41.939Z,6.16
2022-11-14T15:36:10.278Z,6.07
2022-11-14T15:38:43.886Z,6.05
2022-11-14T15:41:22.261Z,6.09
2022-11-14T15:43:51.086Z,6.11
2022-11-14T15:46:28.062Z,6.07
2022-11-14T15:48:54.742Z,6.11
2022-11-14T15:51:39.998Z,6.15
2022-11-14T15:54:18.954Z,6.17
2022-11-14T15:56:47.478Z,6.14
2022-11-14T15:59:13.871Z,6.14
2022-11-14T16:01:40.489Z,6.11
2022-11-14T16:04:09.629Z,6.19
2022-11-14T16:06:36.154Z,6.24
2022-11-14T16:09:02.606Z,6.26
2022-11-14T16:11:29.074Z,6.25
2022-11-14T16:13:55.477Z,6.22
2022-11-14T16:16:22.364Z,6.24
2022-11-14T16:18:48.805Z,6.24
2022-11-14T16:21:18.204Z,6.14
2022-11-14T16:23:45.254Z,6.06
2022-11-14T16:26:11.650Z,5.98
2022-11-14T16:28:38.040Z,5.94
2022-11-14T16:31:12.903Z,5.88
2022-11-14T16:33:39.416Z,5.95
2022-11-14T16:36:06.318Z,5.56
2022-11-14T16:38:32.743Z,5.64
2022-11-14T16:41:03.046Z,5.79
2022-11-14T16:43:29.849Z,5.61
2022-11-14T16:45:56.577Z,5.35
2022-11-14T16:48:22.988Z,5.47
2022-11-14T16:50:52.890Z,5.35
2022-11-14T16:53:24.839Z,5.19
2022-11-14T16:55:51.227Z,5.26
2022-11-14T16:58:18.086Z,5.29
2022-11-14T17:00:44.709Z,5.13
2022-11-14T17:03:11.118Z,5.24
2022-11-14T17:05:44.221Z,5.17
2022-11-14T17:08:10.810Z,5.07
2022-11-14T17:10:48.882Z,5.20
2022-11-14T17:13:24.004Z,5.03
2022-11-14T17:15:53.035Z,5.11
2022-11-14T17:18:19.412Z,5.08
2022-11-14T17:20:45.820Z,5.02
2022-11-14T17:23:12.410Z,5.08
2022-11-14T17:25:38.789Z,4.95
2022-11-14T17:28:05.198Z,5.04
2022-11-14T17:30:31.577Z,4.95
2022-11-14T17:32:58.155Z,4.93
2022-11-14T17:35:24.597Z,5.02
2022-11-14T17:37:52.298Z,4.82
2022-11-14T17:40:22.435Z,4.95
2022-11-14T17:42:49.062Z,4.76
2022-11-14T17:45:15.559Z,4.80
2022-11-14T17:47:42.109Z,4.82
2022-11-14T17:50:09.278Z,4.70
2022-11-14T17:52:35.879Z,4.83
2022-11-14T17:55:02.354Z,4.68
2022-11-14T17:57:28.888Z,4.74
2022-11-14T17:59:55.275Z,4.78
2022-11-14T18:02:21.688Z,4.64
2022-11-14T18:04:48.880Z,4.82
2022-11-14T18:07:15.787Z,4.65
2022-11-14T18:09:42.256Z,4.67
2022-11-14T18:12:08.718Z,4.81
2022-11-14T18:14:35.684Z,4.65
2022-11-14T18:17:18.096Z,4.78
2022-11-14T18:19:44.563Z,4.71
2022-11-14T18:22:10.980Z,4.68
2022-11-14T18:24:37.518Z,4.78
2022-11-14T18:27:04.094Z,4.63
2022-11-14T18:29:31.222Z,4.73
2022-11-14T18:31:57.760Z,4.73
2022-11-14T18:34:24.238Z,4.65
2022-11-14T18:36:53.093Z,4.84
2022-11-14T18:39:19.695Z,4.71
2022-11-14T18:41:47.069Z,4.64
2022-11-14T18:44:14.327Z,4.70
2022-11-14T18:46:40.933Z,4.58
2022-11-14T18:49:07.423Z,4.70
2022-11-14T18:51:41.988Z,4.54
2022-11-14T18:54:12.801Z,4.47
2022-11-14T18:56:39.379Z,4.63
2022-11-14T18:59:06.135Z,4.45
2022-11-14T19:01:35.142Z,4.55
2022-11-14T19:04:03.329Z,4.53
2022-11-14T19:06:30.918Z,4.39
2022-11-14T19:08:59.949Z,4.51
2022-11-14T19:11:45.259Z,4.47
2022-11-14T19:14:12.039Z,4.42
2022-11-14T19:16:38.759Z,4.55
2022-11-14T19:19:06.134Z,4.35
2022-11-14T19:21:32.957Z,4.42
2022-11-14T19:24:02.227Z,4.44
2022-11-14T19:26:29.277Z,4.32
2022-11-14T19:28:55.770Z,4.49
2022-11-14T19:31:23.005Z,4.36
2022-11-14T19:33:49.448Z,4.31
2022-11-14T19:36:27.833Z,4.41
2022-11-14T19:39:04.076Z,4.21
2022-11-14T19:41:32.014Z,4.32
2022-11-14T19:44:01.321Z,4.29
2022-11-14T19:46:29.373Z,4.19
2022-11-14T19:48:57.201Z,4.36
2022-11-14T19:51:24.570Z,4.21
2022-11-14T19:53:53.358Z,4.18
2022-11-14T19:56:20.182Z,4.28
2022-11-14T19:58:47.667Z,4.09
2022-11-14T20:01:15.704Z,4.19
2022-11-14T20:03:42.187Z,4.21
2022-11-14T20:06:23.396Z,4.09
2022-11-14T20:08:50.634Z,4.24
2022-11-14T20:11:17.642Z,4.13
2022-11-14T20:13:44.264Z,4.08
2022-11-14T20:16:20.467Z,4.21
2022-11-14T20:18:57.469Z,4.04
2022-11-14T20:21:26.097Z,4.07
2022-11-14T20:23:53.659Z,4.13
2022-11-14T23:10:26.177Z,3.21
2022-11-14T23:12:52.930Z,3.05
2022-11-14T23:17:45.019Z,3.08
2022-11-14T23:20:16.292Z,2.93
2022-11-14T23:22:43.489Z,3.09
2022-11-14T23:25:10.166Z,2.86
2022-11-14T23:27:36.890Z,2.76
2022-11-14T23:30:04.356Z,2.93
2022-11-14T23:32:31.117Z,2.77
2022-11-14T23:34:57.765Z,2.74
2022-11-14T23:37:25.248Z,2.92
2022-11-14T23:39:51.875Z,2.74
2022-11-14T23:42:18.952Z,2.70
2022-11-14T23:44:45.666Z,2.83
2022-11-14T23:47:12.534Z,2.60
2022-11-14T23:49:39.277Z,2.69
2022-11-14T23:52:05.883Z,2.79
2022-11-14T23:54:32.514Z,2.69
2022-11-14T23:57:04.199Z,2.72
2022-11-14T23:59:31.492Z,2.80
